createdAt,value
2023-04-18T00:00:06.287Z,100255.78
2023-04-18T00:03:15.891Z,100245.59
2023-04-18T00:06:19.425Z,100250.94
2023-04-18T00:09:22.056Z,100251.91
2023-04-18T00:12:24.732Z,100257.19
2023-04-18T00:15:29.307Z,100252.91
2023-04-18T00:18:32.202Z,100256.28
2023-04-18T00:21:34.980Z,100259.91
2023-04-18T00:24:37.620Z,100255.69
2023-04-18T00:27:40.056Z,100257.63
2023-04-18T00:30:42.730Z,100262.84
2023-04-18T00:33:45.084Z,100258.44
2023-04-18T00:36:47.708Z,100261.03
2023-04-18T00:39:53.767Z,100261.97
2023-04-18T00:42:56.337Z,100266.41
2023-04-18T00:46:01.552Z,100260.16
2023-04-18T00:49:04.652Z,100265.38
2023-04-18T00:52:07.618Z,100258.59
2023-04-18T00:55:10.400Z,100263.91
2023-04-18T00:58:12.934Z,100264.34
2023-04-18T01:01:16.238Z,100261.03
2023-04-18T01:04:19.571Z,100255.84
2023-04-18T01:07:22.433Z,100254.28
2023-04-18T01:10:25.388Z,100249.50
2023-04-18T01:13:28.054Z,100249.72
2023-04-18T01:16:34.740Z,100256.41
2023-04-18T01:19:37.915Z,100259.91
2023-04-18T01:22:42.544Z,100260.16
2023-04-18T01:25:46.084Z,100256.75
2023-04-18T01:28:48.562Z,100252.53
2023-04-18T01:31:51.411Z,100257.28
2023-04-18T01:34:53.823Z,100255.44
2023-04-18T01:37:57.174Z,100252.25
2023-04-18T01:40:59.485Z,100254.00
2023-04-18T01:44:02.406Z,100247.19
2023-04-18T01:47:04.798Z,100259.88
2023-04-18T01:50:08.879Z,100256.53
2023-04-18T01:53:11.294Z,100257.53
2023-04-18T01:56:14.049Z,100251.66
2023-04-18T01:59:16.452Z,100258.03
2023-04-18T02:02:20.565Z,100257.00
2023-04-18T02:05:23.237Z,100253.69
2023-04-18T02:08:25.578Z,100258.97
2023-04-18T02:11:30.978Z,100260.34
2023-04-18T02:14:35.336Z,100263.06
2023-04-18T02:17:38.169Z,100267.19
2023-04-18T02:20:40.564Z,100269.72
2023-04-18T02:23:43.200Z,100261.31
2023-04-18T02:26:45.819Z,100260.00
2023-04-18T02:29:48.463Z,100257.50
2023-04-18T02:32:52.210Z,100261.91
2023-04-18T02:35:58.365Z,100266.09
2023-04-18T02:39:00.653Z,100260.97
2023-04-18T02:42:03.988Z,100267.94
2023-04-18T02:45:06.950Z,100266.75
2023-04-18T02:48:10.303Z,100264.31
2023-04-18T02:51:13.320Z,100266.41
2023-04-18T02:54:16.457Z,100264.81
2023-04-18T02:57:19.607Z,100264.97
2023-04-18T03:00:24.435Z,100273.59
2023-04-18T03:03:28.375Z,100274.41
2023-04-18T03:06:32.757Z,100276.16
2023-04-18T03:09:37.350Z,100274.25
2023-04-18T03:12:40.961Z,100279.47
2023-04-18T03:15:44.301Z,100281.19
2023-04-18T03:18:48.336Z,100286.47
2023-04-18T03:21:51.341Z,100278.81
2023-04-18T03:24:54.246Z,100289.22
2023-04-18T03:27:57.978Z,100286.41
2023-04-18T03:31:01.391Z,100286.28
2023-04-18T03:34:04.483Z,100285.72
2023-04-18T03:37:07.375Z,100289.00
2023-04-18T03:40:11.281Z,100293.53
2023-04-18T03:43:15.473Z,100285.53
2023-04-18T03:46:17.896Z,100290.09
2023-04-18T03:49:21.059Z,100291.81
2023-04-18T03:52:23.473Z,100290.75
2023-04-18T03:55:26.587Z,100295.19
2023-04-18T03:58:29.402Z,100292.69
2023-04-18T04:01:32.247Z,100299.66
2023-04-18T04:04:35.311Z,100302.63
2023-04-18T04:07:37.687Z,100300.88
2023-04-18T04:10:40.778Z,100308.81
2023-04-18T04:13:43.367Z,100312.28
2023-04-18T04:16:47.300Z,100318.00
2023-04-18T04:19:51.360Z,100316.66
2023-04-18T04:22:55.465Z,100324.41
2023-04-18T04:25:58.699Z,100329.78
2023-04-18T04:29:05.168Z,100326.69
2023-04-18T04:32:08.277Z,100327.59
2023-04-18T04:35:11.753Z,100330.34
2023-04-18T04:38:15.384Z,100329.41
2023-04-18T04:41:18.765Z,100337.12
2023-04-18T04:44:22.067Z,100335.47
2023-04-18T04:47:24.850Z,100337.09
2023-04-18T04:50:27.291Z,100338.00
2023-04-18T04:53:33.026Z,100341.34
2023-04-18T04:56:36.630Z,100342.69
2023-04-18T04:59:40.357Z,100342.78
2023-04-18T05:02:42.701Z,100345.37
2023-04-18T05:05:45.737Z,100345.97
2023-04-18T05:08:49.093Z,100346.69
2023-04-18T05:11:52.133Z,100344.25
2023-04-18T05:14:54.494Z,100350.94
2023-04-18T05:18:03.305Z,100350.84
2023-04-18T05:21:06.109Z,100352.44
2023-04-18T05:24:08.941Z,100355.50
2023-04-18T05:27:11.403Z,100361.97
2023-04-18T05:30:14.331Z,100358.00
2023-04-18T05:33:16.665Z,100362.53
2023-04-18T05:36:19.390Z,100373.47
2023-04-18T05:39:22.148Z,100366.00
2023-04-18T05:42:25.553Z,100364.78
2023-04-18T05:45:27.998Z,100367.16
2023-04-18T05:48:30.729Z,100370.78
2023-04-18T05:51:33.098Z,100375.03
2023-04-18T05:54:35.815Z,100374.50
2023-04-18T05:57:38.285Z,100375.00
2023-04-18T06:00:42.199Z,100375.84
2023-04-18T06:03:45.573Z,100370.28
2023-04-18T06:06:48.079Z,100377.06
2023-04-18T06:09:51.203Z,100381.16
2023-04-18T06:12:53.628Z,100376.50
2023-04-18T06:15:56.282Z,100380.78
2023-04-18T06:19:01.272Z,100384.22
2023-04-18T06:22:04.342Z,100383.28
2023-04-18T06:25:08.762Z,100383.00
2023-04-18T06:28:11.465Z,100391.75
2023-04-18T06:31:13.891Z,100390.81
2023-04-18T06:34:17.168Z,100392.06
2023-04-18T06:37:19.556Z,100392.09
2023-04-18T06:40:22.284Z,100392.63
2023-04-18T06:43:24.802Z,100395.19
2023-04-18T06:46:27.528Z,100389.81
2023-04-18T06:49:30.161Z,100396.09
2023-04-18T06:52:32.703Z,100398.00
2023-04-18T06:55:35.935Z,100401.00
2023-04-18T06:58:38.708Z,100399.34
2023-04-18T07:01:42.131Z,100401.69
2023-04-18T07:04:45.064Z,100398.38
2023-04-18T07:07:47.541Z,100407.66
2023-04-18T07:10:50.150Z,100410.31
2023-04-18T07:13:52.477Z,100402.84
2023-04-18T07:16:55.295Z,100406.03
2023-04-18T07:19:58.078Z,100415.00
2023-04-18T07:23:00.825Z,100400.31
2023-04-18T07:26:03.688Z,100407.75
2023-04-18T07:29:06.495Z,100408.97
2023-04-18T07:32:09.173Z,100408.78
2023-04-18T07:35:11.968Z,100410.69
2023-04-18T07:38:14.503Z,100419.38
2023-04-18T07:41:17.151Z,100417.34
2023-04-18T07:44:21.493Z,100423.66
2023-04-18T07:47:24.204Z,100424.75
2023-04-18T07:50:27.053Z,100428.41
2023-04-18T07:53:29.695Z,100432.66
2023-04-18T07:56:32.025Z,100430.13
2023-04-18T07:59:35.326Z,100435.69
2023-04-18T08:02:37.803Z,100443.31
2023-04-18T08:05:41.230Z,100437.06
2023-04-18T08:08:43.990Z,100439.69
2023-04-18T08:11:46.660Z,100447.94
2023-04-18T08:14:48.958Z,100448.25
2023-04-18T08:17:51.650Z,100441.31
2023-04-18T08:20:54.139Z,100446.03
2023-04-18T08:23:57.079Z,100446.31
2023-04-18T08:26:59.411Z,100447.00
2023-04-18T08:30:04.124Z,100447.78
2023-04-18T08:33:07.276Z,100445.00
2023-04-18T08:36:10.072Z,100444.94
2023-04-18T08:39:12.605Z,100443.34
2023-04-18T08:42:19.598Z,100452.72
2023-04-18T08:45:22.068Z,100452.72
2023-04-18T08:48:24.766Z,100445.78
2023-04-18T08:51:29.526Z,100451.47
2023-04-18T08:54:32.455Z,100449.88
2023-04-18T08:57:35.919Z,100444.84
2023-04-18T09:00:38.573Z,100450.66
2023-04-18T09:03:41.679Z,100455.91
2023-04-18T09:06:53.295Z,100457.41
2023-04-18T09:09:59.432Z,100453.19
2023-04-18T09:13:03.534Z,100457.75
2023-04-18T09:16:06.506Z,100449.69
2023-04-18T09:19:13.880Z,100448.22
2023-04-18T09:22:17.936Z,100453.75
2023-04-18T09:25:29.306Z,100457.44
2023-04-18T09:28:33.224Z,100461.81
2023-04-18T09:31:51.174Z,100454.88
2023-04-18T09:34:58.302Z,100458.84
2023-04-18T09:38:01.175Z,100457.06
2023-04-18T09:41:10.534Z,100448.28
2023-04-18T09:44:15.666Z,100449.09
2023-04-18T09:47:18.324Z,100445.50
2023-04-18T09:50:21.327Z,100455.91
2023-04-18T09:53:24.409Z,100438.72
2023-04-18T09:56:28.242Z,100440.44
2023-04-18T09:59:36.898Z,100432.56
2023-04-18T10:02:50.517Z,100436.22
2023-04-18T10:05:53.326Z,100433.63
2023-04-18T10:08:56.187Z,100430.94
2023-04-18T10:11:59.760Z,100437.00
2023-04-18T10:15:02.347Z,100434.41
2023-04-18T10:18:14.380Z,100429.41
2023-04-18T10:21:16.810Z,100432.94
2023-04-18T10:24:38.936Z,100436.31
2023-04-18T10:27:47.605Z,100438.47
2023-04-18T10:30:51.919Z,100439.22
2023-04-18T10:37:04.521Z,100437.75
2023-04-18T10:40:07.356Z,100438.81
2023-04-18T10:43:10.045Z,100429.63
2023-04-18T10:46:27.855Z,100437.78
2023-04-18T10:49:36.136Z,100427.13
2023-04-18T10:52:38.821Z,100423.28
2023-04-18T10:55:44.584Z,100429.84
2023-04-18T10:58:51.318Z,100425.28
2023-04-18T11:01:59.687Z,100417.72
2023-04-18T11:05:04.800Z,100419.16
2023-04-18T11:08:23.649Z,100417.47
2023-04-18T11:11:26.086Z,100426.50
2023-04-18T11:14:39.197Z,100423.94
2023-04-18T11:17:41.580Z,100422.88
2023-04-18T11:20:51.838Z,100424.56
2023-04-18T11:23:55.496Z,100430.53
2023-04-18T11:26:58.377Z,100429.94
2023-04-18T11:30:00.897Z,100423.87
2023-04-18T11:33:07.555Z,100431.00
2023-04-18T11:36:10.148Z,100431.62
2023-04-18T11:39:12.805Z,100428.25
2023-04-18T11:42:15.263Z,100422.03
2023-04-18T11:45:17.952Z,100428.78
2023-04-18T11:48:20.413Z,100425.72
2023-04-18T11:51:36.892Z,100422.56
2023-04-18T11:54:40.484Z,100420.97
2023-04-18T11:57:49.287Z,100423.00
2023-04-18T12:00:51.629Z,100416.91
2023-04-18T12:04:01.058Z,100418.69
2023-04-18T12:07:03.664Z,100416.84
2023-04-18T12:10:09.996Z,100411.56
2023-04-18T12:13:12.571Z,100416.25
2023-04-18T12:16:15.132Z,100409.91
2023-04-18T12:19:20.460Z,100412.41
2023-04-18T12:22:40.098Z,100405.25
2023-04-18T12:25:42.442Z,100408.69
2023-04-18T12:28:45.798Z,100410.22
2023-04-18T12:31:48.194Z,100414.19
2023-04-18T12:34:50.933Z,100406.69
2023-04-18T12:37:54.379Z,100412.63
2023-04-18T12:40:57.331Z,100409.47
2023-04-18T12:43:59.927Z,100411.13
2023-04-18T12:47:02.697Z,100421.38
2023-04-18T12:50:06.325Z,100414.03
2023-04-18T12:53:08.989Z,100418.31
2023-04-18T12:56:11.381Z,100416.72
2023-04-18T12:59:14.183Z,100417.69
2023-04-18T13:02:16.851Z,100413.56
2023-04-18T13:05:20.730Z,100405.88
2023-04-18T13:08:23.367Z,100399.09
2023-04-18T13:11:28.626Z,100417.91
2023-04-18T13:14:31.252Z,100404.31
2023-04-18T13:17:35.106Z,100414.31
2023-04-18T13:20:37.639Z,100407.31
2023-04-18T13:23:41.190Z,100404.50
2023-04-18T13:26:43.523Z,100405.44
2023-04-18T13:29:46.581Z,100412.47
2023-04-18T13:32:49.172Z,100413.00
2023-04-18T13:35:51.846Z,100418.75
2023-04-18T13:38:54.225Z,100423.69
2023-04-18T13:41:57.034Z,100410.50
2023-04-18T13:45:00.031Z,100415.16
2023-04-18T13:48:02.758Z,100412.22
2023-04-18T13:51:05.718Z,100412.00
2023-04-18T13:54:08.547Z,100414.31
2023-04-18T13:57:14.720Z,100414.84
2023-04-18T14:00:19.049Z,100412.84
2023-04-18T14:03:22.405Z,100400.81
2023-04-18T14:06:26.407Z,100406.72
2023-04-18T14:09:29.001Z,100412.00
2023-04-18T14:12:31.534Z,100410.00
2023-04-18T14:15:34.130Z,100403.13
2023-04-18T14:18:37.173Z,100405.47
2023-04-18T14:21:40.034Z,100399.66
2023-04-18T14:24:42.493Z,100401.56
2023-04-18T14:27:47.266Z,100394.06
2023-04-18T14:30:49.586Z,100397.84
2023-04-18T14:33:52.251Z,100398.06
2023-04-18T14:36:54.754Z,100390.25
2023-04-18T14:39:57.578Z,100400.06
2023-04-18T14:43:00.279Z,100401.34
2023-04-18T14:46:02.954Z,100399.53
2023-04-18T14:49:05.440Z,100399.34
2023-04-18T14:52:08.111Z,100401.16
2023-04-18T14:55:10.847Z,100414.75
2023-04-18T14:58:13.574Z,100408.22
2023-04-18T15:01:17.573Z,100408.50
2023-04-18T15:04:21.063Z,100414.06
2023-04-18T15:07:23.916Z,100412.06
2023-04-18T15:10:26.761Z,100407.66
2023-04-18T15:13:29.020Z,100407.38
2023-04-18T15:16:32.109Z,100401.56
2023-04-18T15:19:34.592Z,100405.91
2023-04-18T15:22:37.253Z,100404.81
2023-04-18T15:25:39.896Z,100404.62
2023-04-18T15:28:43.039Z,100406.56
2023-04-18T15:31:46.779Z,100404.81
2023-04-18T15:34:49.496Z,100405.34
2023-04-18T15:37:53.714Z,100394.16
2023-04-18T15:40:56.508Z,100399.75
2023-04-18T15:43:58.938Z,100393.72
2023-04-18T15:47:01.916Z,100401.94
2023-04-18T15:50:04.823Z,100405.06
2023-04-18T15:53:07.629Z,100405.28
2023-04-18T15:56:10.142Z,100396.00
2023-04-18T15:59:13.689Z,100403.09
2023-04-18T16:02:16.250Z,100409.53
2023-04-18T16:05:18.971Z,100408.81
2023-04-18T16:08:21.567Z,100409.87
2023-04-18T16:11:27.597Z,100411.25
2023-04-18T16:14:30.615Z,100418.03
2023-04-18T16:17:33.186Z,100417.81
2023-04-18T16:20:35.593Z,100425.19
2023-04-18T16:23:38.228Z,100426.94
2023-04-18T16:26:40.524Z,100419.13
2023-04-18T16:29:44.552Z,100419.87
2023-04-18T16:32:46.995Z,100420.09
2023-04-18T16:35:49.653Z,100415.38
2023-04-18T16:38:52.221Z,100417.78
2023-04-18T16:41:54.938Z,100420.78
2023-04-18T16:44:57.289Z,100415.78
2023-04-18T16:48:00.362Z,100417.84
2023-04-18T16:51:02.976Z,100413.09
2023-04-18T16:54:06.092Z,100418.22
2023-04-18T16:57:08.498Z,100422.00
2023-04-18T17:00:13.590Z,100415.50
2023-04-18T17:03:16.159Z,100423.56
2023-04-18T17:06:19.480Z,100418.91
2023-04-18T17:09:21.781Z,100430.03
2023-04-18T17:12:27.595Z,100429.09
2023-04-18T17:15:30.009Z,100430.53
2023-04-18T17:18:33.037Z,100440.94
2023-04-18T17:21:35.689Z,100433.00
2023-04-18T17:24:38.417Z,100438.88
2023-04-18T17:27:43.399Z,100437.41
2023-04-18T17:30:46.397Z,100440.94
2023-04-18T17:33:50.808Z,100433.94
2023-04-18T17:36:53.417Z,100442.84
2023-04-18T17:39:57.808Z,100440.41
2023-04-18T17:43:00.412Z,100446.78
2023-04-18T17:46:03.811Z,100450.56
2023-04-18T17:49:06.590Z,100447.97
2023-04-18T17:52:10.276Z,100455.66
2023-04-18T17:55:13.180Z,100454.34
2023-04-18T17:58:16.918Z,100459.03
2023-04-18T18:01:21.041Z,100457.25
2023-04-18T18:04:26.446Z,100467.56
2023-04-18T18:07:31.147Z,100465.59
2023-04-18T18:10:37.496Z,100472.34
2023-04-18T18:13:39.857Z,100469.41
2023-04-18T18:16:42.633Z,100472.44
2023-04-18T18:19:44.975Z,100468.25
2023-04-18T18:22:48.041Z,100478.75
2023-04-18T18:25:50.809Z,100473.41
2023-04-18T18:28:53.658Z,100477.66
2023-04-18T18:31:56.256Z,100480.22
2023-04-18T18:34:58.923Z,100483.41
2023-04-18T18:38:01.423Z,100477.91
2023-04-18T18:41:04.677Z,100478.84
2023-04-18T18:44:07.331Z,100481.56
2023-04-18T18:47:09.904Z,100476.12
2023-04-18T18:50:12.309Z,100487.25
2023-04-18T18:53:17.932Z,100487.94
2023-04-18T18:56:20.302Z,100494.03
2023-04-18T18:59:23.005Z,100492.91
2023-04-18T19:02:26.030Z,100491.16
2023-04-18T19:05:28.770Z,100498.84
2023-04-18T19:08:31.230Z,100507.34
2023-04-18T19:11:33.752Z,100517.59
2023-04-18T19:14:36.295Z,100524.03
2023-04-18T19:17:39.038Z,100521.50
2023-04-18T19:20:41.830Z,100531.28
2023-04-18T19:23:44.621Z,100535.75
2023-04-18T19:26:47.101Z,100541.59
2023-04-18T19:29:49.788Z,100546.47
2023-04-18T19:32:52.473Z,100545.03
2023-04-18T19:35:55.522Z,100536.53
2023-04-18T19:38:57.852Z,100539.19
2023-04-18T19:42:02.637Z,100541.03
2023-04-18T19:48:08.327Z,100544.00
2023-04-18T19:51:10.737Z,100557.16
2023-04-18T19:54:14.050Z,100556.47
2023-04-18T19:57:16.606Z,100555.00
2023-04-18T20:00:19.969Z,100559.56
2023-04-18T20:03:22.746Z,100564.38
2023-04-18T20:06:26.667Z,100560.97
2023-04-18T20:09:29.274Z,100558.66
2023-04-18T20:12:31.711Z,100560.34
2023-04-18T20:15:34.569Z,100566.13
2023-04-18T20:18:37.913Z,100558.16
2023-04-18T20:21:41.107Z,100559.22
2023-04-18T20:24:45.068Z,100562.91
2023-04-18T20:27:48.236Z,100561.63
2023-04-18T20:30:50.694Z,100559.34
2023-04-18T20:33:53.375Z,100549.00
2023-04-18T20:36:57.834Z,100555.44
2023-04-18T20:40:02.989Z,100551.34
2023-04-18T20:43:06.869Z,100557.69
2023-04-18T20:46:12.913Z,100557.00
2023-04-18T20:49:15.753Z,100559.16
2023-04-18T20:52:19.101Z,100555.25
2023-04-18T20:55:21.834Z,100562.56
2023-04-18T20:58:24.712Z,100567.66
2023-04-18T21:01:27.196Z,100565.22
2023-04-18T21:04:30.412Z,100567.13
2023-04-18T21:07:32.870Z,100560.59
2023-04-18T21:10:35.626Z,100554.72
2023-04-18T21:13:38.005Z,100560.09
2023-04-18T21:16:41.077Z,100556.50
2023-04-18T21:19:47.003Z,100558.06
2023-04-18T21:22:50.190Z,100552.25
2023-04-18T21:25:52.460Z,100556.63
2023-04-18T21:28:59.461Z,100553.06
2023-04-18T21:32:02.236Z,100550.41
2023-04-18T21:35:06.049Z,100541.81
2023-04-18T21:38:08.377Z,100551.84
2023-04-18T21:41:13.501Z,100543.19
2023-04-18T21:44:18.785Z,100546.22
2023-04-18T21:47:21.873Z,100541.00
2023-04-18T21:50:24.308Z,100541.22
2023-04-18T21:53:27.016Z,100540.69
2023-04-18T21:56:29.427Z,100540.88
2023-04-18T21:59:33.865Z,100540.81
2023-04-18T22:02:36.464Z,100540.03
2023-04-18T22:05:39.186Z,100537.81
2023-04-18T22:08:42.138Z,100535.28
2023-04-18T22:11:44.817Z,100534.63
2023-04-18T22:14:48.556Z,100537.88
2023-04-18T22:17:52.093Z,100533.16
2023-04-18T22:20:54.912Z,100528.28
2023-04-18T22:23:58.033Z,100530.78
2023-04-18T22:27:01.231Z,100519.94
2023-04-18T22:30:04.408Z,100522.94
2023-04-18T22:33:07.087Z,100517.59
2023-04-18T22:36:09.772Z,100524.09
2023-04-18T22:39:13.053Z,100512.59
2023-04-18T22:42:15.726Z,100507.25
2023-04-18T22:45:18.650Z,100509.88
2023-04-18T22:48:21.272Z,100504.44
2023-04-18T22:51:24.256Z,100505.31
2023-04-18T22:54:26.830Z,100505.31
2023-04-18T22:57:29.172Z,100496.03
2023-04-18T23:00:32.612Z,100488.09
2023-04-18T23:03:35.188Z,100489.06
2023-04-18T23:06:38.820Z,100488.94
2023-04-18T23:09:41.119Z,100490.38
2023-04-18T23:12:43.817Z,100481.81
2023-04-18T23:15:46.627Z,100480.50
2023-04-18T23:18:49.453Z,100474.47
2023-04-18T23:21:51.917Z,100475.69
2023-04-18T23:24:55.010Z,100472.72
2023-04-18T23:27:57.593Z,100471.88
2023-04-18T23:31:00.312Z,100467.44
2023-04-18T23:34:03.343Z,100468.09
2023-04-18T23:37:06.300Z,100459.66
2023-04-18T23:40:09.116Z,100451.91
2023-04-18T23:43:11.813Z,100452.94
2023-04-18T23:46:15.154Z,100449.81
2023-04-18T23:49:17.860Z,100440.16
2023-04-18T23:52:20.324Z,100437.47
2023-04-18T23:55:23.419Z,100438.03
2023-04-18T23:58:26.916Z,100430.94
